Krypton, Kentucky
Current Conditions -  °F | °C
As of 5:58 AM on Thursday 27 Nov 2014 (Local Time) from KJKL Reporting Station
Light Snow Light Snow  
Wind Chill: 27°   Ceiling: 3800
Heat Index: 32°   Visibility: 1.7mi
Dew Point: 27°   Wind: 5mph
Humidity: 82%   Direction: NA
Pressure: 30.07"   Gusts: NA
Location:  37.31°N, 83.34°W
Report Text: KJKL 271058Z AUTO VRB04KT 1 3/4SM -SN FEW022 BKN038 OVC045 00/M03 A3007 RMK AO2 P0000 T00001028
Loading
Personal Weather Stations






























Interactive Weather Map New forecast layout! Learn more

10-Day Weather Forecast

Advertisements
Track Severe Weather on mobile